createdAt,value
2024-04-09T03:32:23.472Z,66.48
2024-04-09T03:34:50.456Z,66.27
2024-04-09T03:37:17.402Z,68.87
2024-04-09T03:39:44.348Z,71.54
2024-04-09T03:42:11.372Z,71.25
2024-04-09T03:44:38.294Z,71.52
2024-04-09T03:47:05.196Z,73.00
2024-04-09T03:49:32.124Z,72.40
2024-04-09T03:51:59.067Z,69.05
2024-04-09T03:54:26.020Z,70.36
2024-04-09T03:56:52.956Z,71.11
2024-04-09T03:59:19.876Z,70.35
2024-04-09T04:01:46.898Z,70.94
2024-04-09T04:04:13.954Z,71.04
2024-04-09T04:06:41.008Z,71.46
2024-04-09T04:09:07.955Z,71.75
2024-04-09T04:11:34.940Z,71.11
2024-04-09T04:14:01.962Z,72.75
2024-04-09T04:16:28.885Z,72.69
2024-04-09T04:18:55.838Z,75.48
2024-04-09T04:21:22.858Z,73.45
2024-04-09T04:23:49.824Z,73.66
2024-04-09T04:26:16.747Z,73.63
2024-04-09T04:28:43.743Z,73.43
2024-04-09T04:31:10.661Z,73.22
2024-04-09T04:33:37.727Z,74.11
2024-04-09T04:36:04.821Z,73.99
2024-04-09T04:38:31.746Z,73.55
2024-04-09T04:40:58.679Z,73.36
2024-04-09T04:43:25.577Z,72.63
2024-04-09T04:46:10.778Z,72.89
2024-04-09T04:48:37.983Z,74.58
2024-04-09T04:51:05.293Z,74.55
2024-04-09T04:53:32.589Z,76.59
2024-04-09T04:55:59.640Z,78.65
2024-04-09T04:58:26.738Z,80.52
2024-04-09T05:00:53.830Z,80.00
2024-04-09T05:03:21.271Z,79.55
2024-04-09T05:05:48.340Z,79.84
2024-04-09T05:08:15.245Z,80.38
2024-04-09T05:10:42.208Z,79.27
2024-04-09T05:13:09.209Z,80.30
2024-04-09T05:15:36.186Z,79.83
2024-04-09T05:18:03.563Z,80.57
2024-04-09T05:20:30.988Z,77.92
2024-04-09T05:22:58.219Z,79.71
2024-04-09T05:25:25.252Z,78.47
2024-04-09T05:27:52.175Z,79.28
2024-04-09T05:30:19.154Z,79.94
2024-04-09T05:32:46.324Z,79.09
2024-04-09T05:35:13.296Z,80.98
2024-04-09T05:37:40.233Z,81.66
2024-04-09T05:40:07.144Z,80.93
2024-04-09T05:42:34.122Z,80.87
2024-04-09T05:45:01.105Z,80.01
2024-04-09T05:47:28.165Z,80.81
2024-04-09T05:49:55.128Z,81.24
2024-04-09T05:52:22.033Z,83.62
2024-04-09T05:54:48.963Z,85.88
2024-04-09T05:57:15.933Z,85.25
2024-04-09T05:59:42.880Z,85.19
2024-04-09T06:02:09.836Z,84.78
2024-04-09T06:04:36.904Z,83.43
2024-04-09T06:07:04.020Z,86.66
2024-04-09T06:09:31.024Z,85.75
2024-04-09T06:11:58.050Z,86.86
2024-04-09T06:14:25.030Z,88.03
2024-04-09T06:16:52.211Z,86.89
2024-04-09T06:19:19.784Z,86.45
2024-04-09T06:21:46.785Z,88.14
2024-04-09T06:24:13.751Z,88.71
2024-04-09T06:26:40.741Z,85.87
2024-04-09T06:29:07.672Z,85.86
2024-04-09T06:31:34.570Z,86.95
2024-04-09T06:34:01.659Z,86.84
2024-04-09T06:36:28.766Z,86.45
2024-04-09T06:38:55.759Z,83.88
2024-04-09T06:41:22.721Z,84.17
2024-04-09T06:43:49.613Z,83.49
2024-04-09T06:46:16.534Z,84.11
2024-04-09T06:48:43.563Z,95.45
2024-04-09T06:51:10.577Z,99.33
2024-04-09T06:53:37.540Z,100.00
2024-04-09T06:56:04.468Z,100.00
2024-04-09T06:58:31.383Z,100.00
2024-04-09T07:00:58.398Z,100.00
2024-04-09T07:03:25.490Z,100.00
2024-04-09T07:05:52.410Z,100.00
2024-04-09T07:08:19.431Z,99.44
2024-04-09T07:10:46.333Z,90.42
2024-04-09T07:13:13.253Z,86.79
2024-04-09T07:15:40.253Z,87.11
2024-04-09T07:18:07.352Z,87.85
2024-04-09T07:20:34.326Z,89.70
2024-04-09T07:23:01.225Z,88.85
2024-04-09T07:25:28.156Z,87.99
2024-04-09T07:27:55.063Z,91.02
2024-04-09T07:30:22.050Z,88.85
2024-04-09T07:32:49.053Z,86.47
2024-04-09T07:35:15.979Z,87.37
2024-04-09T07:37:42.890Z,86.71
2024-04-09T07:40:09.787Z,88.22
2024-04-09T07:42:36.780Z,84.86
2024-04-09T07:45:03.780Z,87.25
2024-04-09T07:47:30.784Z,86.78
2024-04-09T07:49:57.764Z,85.54
2024-04-09T07:52:24.818Z,86.02
2024-04-09T07:54:51.760Z,84.75
2024-04-09T07:57:18.806Z,84.29
2024-04-09T07:59:45.757Z,85.69
2024-04-09T08:02:12.674Z,83.60
2024-04-09T08:04:39.708Z,82.06
2024-04-09T08:07:06.914Z,82.51
2024-04-09T08:09:34.252Z,81.70
2024-04-09T08:12:01.608Z,82.68
2024-04-09T08:14:28.669Z,83.47
2024-04-09T08:16:55.578Z,80.96
2024-04-09T08:19:22.713Z,81.74
2024-04-09T08:21:49.875Z,81.20
2024-04-09T08:24:16.906Z,81.15
2024-04-09T08:26:43.846Z,80.08
2024-04-09T08:29:10.767Z,80.15
2024-04-09T08:31:37.673Z,79.82
2024-04-09T08:34:05.024Z,77.72
2024-04-09T08:36:32.278Z,78.74
2024-04-09T08:38:59.422Z,77.25
2024-04-09T08:41:26.525Z,76.14
2024-04-09T08:43:53.499Z,77.56
2024-04-09T08:46:20.556Z,76.19
2024-04-09T08:48:47.926Z,76.35
2024-04-09T08:51:15.340Z,77.76
2024-04-09T08:53:42.650Z,79.15
2024-04-09T08:56:09.571Z,81.88
2024-04-09T08:58:36.489Z,80.78
2024-04-09T09:01:03.547Z,80.72
2024-04-09T09:03:30.770Z,82.15
2024-04-09T09:05:57.834Z,86.72
2024-04-09T09:08:24.747Z,83.47
2024-04-09T09:10:51.690Z,80.54
2024-04-09T09:13:18.619Z,78.85
2024-04-09T09:15:45.584Z,78.91
2024-04-09T09:18:12.713Z,76.97
2024-04-09T09:20:39.673Z,77.32
2024-04-09T09:23:06.579Z,80.36
2024-04-09T09:25:33.502Z,80.87
2024-04-09T09:28:00.409Z,79.12
2024-04-09T09:30:27.409Z,79.45
2024-04-09T09:32:54.454Z,80.63
2024-04-09T09:35:21.365Z,80.79
2024-04-09T09:37:48.290Z,79.12
2024-04-09T09:40:15.231Z,80.47
2024-04-09T09:42:42.221Z,80.02
2024-04-09T09:45:09.223Z,80.89
2024-04-09T09:47:36.273Z,81.28
2024-04-09T09:50:10.886Z,80.44
2024-04-09T09:52:43.957Z,79.69
2024-04-09T09:55:10.940Z,79.35
2024-04-09T09:57:37.972Z,78.41
2024-04-09T10:00:06.317Z,79.02
2024-04-09T10:02:35.276Z,78.84
2024-04-09T10:05:02.482Z,78.60
2024-04-09T10:07:29.438Z,80.69
2024-04-09T10:09:56.348Z,78.31
2024-04-09T10:12:23.355Z,79.40
2024-04-09T10:14:50.322Z,79.80
2024-04-09T10:17:17.312Z,76.67
2024-04-09T10:19:44.228Z,79.54
2024-04-09T10:22:11.162Z,81.27
2024-04-09T10:24:38.142Z,80.98
2024-04-09T10:27:05.158Z,81.25
2024-04-09T10:29:32.109Z,82.03
2024-04-09T10:31:59.013Z,80.67
2024-04-09T10:34:26.264Z,81.13
2024-04-09T10:36:56.387Z,81.94
2024-04-09T10:39:23.423Z,80.25
2024-04-09T10:41:50.419Z,79.96
2024-04-09T10:44:17.338Z,79.93
2024-04-09T10:46:44.298Z,77.85
2024-04-09T10:49:11.307Z,80.23
2024-04-09T10:51:38.390Z,78.29
2024-04-09T10:54:05.457Z,77.27
2024-04-09T10:56:32.502Z,78.59
2024-04-09T10:58:59.411Z,73.00
2024-04-09T11:01:26.381Z,77.47
2024-04-09T11:03:53.592Z,78.38
2024-04-09T11:06:20.700Z,78.85
2024-04-09T11:08:47.857Z,79.93
2024-04-09T11:11:14.963Z,80.58
2024-04-09T11:13:42.074Z,80.96
2024-04-09T11:16:09.024Z,80.65
2024-04-09T11:18:36.164Z,80.07
2024-04-09T11:21:03.270Z,80.97
2024-04-09T11:23:30.265Z,80.01
2024-04-09T11:25:57.189Z,79.07
2024-04-09T11:28:24.464Z,78.99
2024-04-09T11:30:51.480Z,79.57
2024-04-09T11:33:18.538Z,81.51
2024-04-09T11:35:45.543Z,79.59
2024-04-09T11:38:12.446Z,80.66
2024-04-09T11:40:39.385Z,77.72
2024-04-09T11:43:06.323Z,79.23
2024-04-09T11:45:33.337Z,78.86
2024-04-09T11:48:00.484Z,79.23
2024-04-09T11:50:27.535Z,79.29
2024-04-09T11:52:54.511Z,77.61
2024-04-09T11:55:24.111Z,80.80
2024-04-09T11:57:52.461Z,80.50
2024-04-09T12:00:19.427Z,78.11
2024-04-09T12:02:46.379Z,78.58
2024-04-09T12:05:13.376Z,77.30
2024-04-09T12:07:40.370Z,76.50
2024-04-09T12:10:07.337Z,78.13
2024-04-09T12:12:34.369Z,78.27
2024-04-09T12:15:01.494Z,77.02
2024-04-09T12:17:28.567Z,75.45
2024-04-09T12:19:55.558Z,77.34
2024-04-09T12:22:23.017Z,76.37
2024-04-09T12:24:50.741Z,77.38
2024-04-09T12:27:17.753Z,76.15
2024-04-09T12:29:44.682Z,76.46
2024-04-09T12:32:11.597Z,77.56
2024-04-09T12:34:38.700Z,77.31
2024-04-09T12:37:05.726Z,76.28
2024-04-09T12:39:32.764Z,77.33
2024-04-09T12:41:59.774Z,77.60
2024-04-09T12:44:26.699Z,77.39
2024-04-09T12:46:53.635Z,75.51
2024-04-09T12:49:28.036Z,74.75
2024-04-09T12:52:01.989Z,74.68
2024-04-09T12:54:28.961Z,75.05
2024-04-09T12:56:55.882Z,76.29
2024-04-09T12:59:30.455Z,73.57
2024-04-09T13:02:06.190Z,74.42
2024-04-09T13:04:33.338Z,76.14
2024-04-09T13:07:00.404Z,74.41
2024-04-09T13:09:27.404Z,73.89
2024-04-09T13:11:54.345Z,76.80
2024-04-09T13:14:21.270Z,76.07
2024-04-09T13:16:52.240Z,75.66
2024-04-09T13:19:20.691Z,76.29
2024-04-09T13:21:47.793Z,76.41
2024-04-09T13:24:14.707Z,76.63
2024-04-09T13:26:41.618Z,75.69
2024-04-09T13:29:08.578Z,78.66
2024-04-09T13:31:35.556Z,78.02
2024-04-09T13:34:02.700Z,77.18
2024-04-09T13:36:29.696Z,76.88
2024-04-09T13:38:56.648Z,75.46
2024-04-09T13:41:23.708Z,77.12
2024-04-09T13:43:50.714Z,74.07
2024-04-09T13:46:18.026Z,74.55
2024-04-09T13:48:45.217Z,74.99
2024-04-09T13:51:12.769Z,72.67
2024-04-09T13:53:39.928Z,72.95
2024-04-09T13:56:06.896Z,72.46
2024-04-09T13:58:33.860Z,72.68
2024-04-09T14:01:00.851Z,71.65
2024-04-09T14:03:27.998Z,71.46
2024-04-09T14:05:55.140Z,71.17
2024-04-09T14:08:22.139Z,72.12
2024-04-09T14:10:49.308Z,72.23
2024-04-09T14:13:16.307Z,71.51
2024-04-09T14:15:43.252Z,72.11
2024-04-09T14:18:10.320Z,73.48
2024-04-09T14:20:37.452Z,73.83
2024-04-09T14:23:04.461Z,73.88
2024-04-09T14:25:31.410Z,72.22
2024-04-09T14:27:58.339Z,73.77
2024-04-09T14:30:25.257Z,74.19
2024-04-09T14:32:52.388Z,75.77
2024-04-09T14:35:19.427Z,75.11
2024-04-09T14:37:46.444Z,74.98
2024-04-09T14:40:13.348Z,74.20
2024-04-09T14:42:40.281Z,74.51
2024-04-09T14:45:07.248Z,74.33
2024-04-09T14:47:34.345Z,74.90
2024-04-09T14:50:01.468Z,74.25
2024-04-09T14:52:28.435Z,72.96
2024-04-09T14:54:55.483Z,75.81
2024-04-09T14:57:22.466Z,75.33
2024-04-09T14:59:49.385Z,74.27
2024-04-09T15:02:16.413Z,73.93
2024-04-09T15:04:43.840Z,73.85
2024-04-09T15:07:10.813Z,73.45
2024-04-09T15:09:37.718Z,75.78
2024-04-09T15:12:04.714Z,75.41
2024-04-09T15:14:31.687Z,75.07
2024-04-09T15:16:58.778Z,75.74
2024-04-09T15:19:25.712Z,76.33
2024-04-09T15:21:52.638Z,75.09
2024-04-09T15:24:19.578Z,76.26
2024-04-09T15:26:46.531Z,77.34
2024-04-09T15:29:13.558Z,76.24
2024-04-09T15:31:40.575Z,75.29
2024-04-09T15:34:07.659Z,74.72
2024-04-09T15:36:34.729Z,75.73
2024-04-09T15:39:01.681Z,73.73
2024-04-09T15:41:28.769Z,77.41
2024-04-09T15:43:55.830Z,77.21
2024-04-09T15:46:22.768Z,78.04
2024-04-09T15:48:49.822Z,76.30
2024-04-09T15:51:17.765Z,75.48
2024-04-09T15:53:44.680Z,76.65
2024-04-09T15:56:11.632Z,76.72
2024-04-09T15:58:38.585Z,78.49
2024-04-09T16:01:05.538Z,76.84
2024-04-09T16:03:32.842Z,77.26
2024-04-09T16:05:59.868Z,74.12
2024-04-09T16:08:26.902Z,72.20
2024-04-09T16:10:54.065Z,71.96
2024-04-09T16:13:21.096Z,70.26
2024-04-09T16:15:48.004Z,68.76
2024-04-09T16:18:15.181Z,69.34
2024-04-09T16:20:42.180Z,70.25
2024-04-09T16:23:09.205Z,69.61
2024-04-09T16:25:36.155Z,73.50
2024-04-09T16:28:03.100Z,73.55
2024-04-09T16:30:30.017Z,71.76
2024-04-09T16:32:58.400Z,72.71
2024-04-09T16:35:25.679Z,72.63
2024-04-09T16:37:52.791Z,72.15
2024-04-09T16:40:19.752Z,71.76
2024-04-09T16:42:46.670Z,70.46
2024-04-09T16:45:13.560Z,69.55
2024-04-09T16:47:40.700Z,69.87
2024-04-09T16:50:07.717Z,73.63
2024-04-09T16:52:34.669Z,72.22
2024-04-09T16:55:01.574Z,72.52
2024-04-09T16:57:33.817Z,72.94
2024-04-09T17:00:08.862Z,71.31
2024-04-09T17:02:35.951Z,69.86
2024-04-09T17:05:03.297Z,72.39
2024-04-09T17:07:30.308Z,72.79
2024-04-09T17:09:57.212Z,71.85
2024-04-09T17:12:24.166Z,71.35
2024-04-09T17:14:51.094Z,71.23
2024-04-09T17:17:18.085Z,70.62
2024-04-09T17:19:45.073Z,69.40
2024-04-09T17:22:12.011Z,70.35
2024-04-09T17:24:38.944Z,69.19
2024-04-09T17:27:05.873Z,70.08
2024-04-09T17:29:32.801Z,70.50
2024-04-09T17:31:59.826Z,70.86
2024-04-09T17:34:26.850Z,69.75
2024-04-09T17:36:53.816Z,71.55
2024-04-09T17:39:20.713Z,71.68
2024-04-09T17:41:47.627Z,70.94
2024-04-09T17:44:14.626Z,70.17
2024-04-09T17:46:41.678Z,70.85
2024-04-09T17:49:08.807Z,69.78
2024-04-09T17:51:35.827Z,70.21
2024-04-09T17:54:02.737Z,70.24
2024-04-09T17:56:29.730Z,70.48
2024-04-09T17:58:56.787Z,71.35
2024-04-09T18:01:27.918Z,72.15
2024-04-09T18:03:55.364Z,71.74
2024-04-09T18:06:22.316Z,70.43
2024-04-09T18:08:49.257Z,71.74
2024-04-09T18:11:16.266Z,73.94
2024-04-09T18:13:43.322Z,74.74
2024-04-09T18:16:10.248Z,73.15
2024-04-09T18:18:37.425Z,72.54
2024-04-09T18:21:04.399Z,72.07
2024-04-09T18:23:31.359Z,74.16
2024-04-09T18:25:58.380Z,74.33
2024-04-09T18:28:25.336Z,72.70
2024-04-09T18:30:52.265Z,72.70
2024-04-09T18:33:19.429Z,73.49
2024-04-09T18:35:46.422Z,72.95
2024-04-09T18:38:13.390Z,73.98
2024-04-09T18:40:40.377Z,74.93
2024-04-09T18:43:07.321Z,75.08
2024-04-09T18:45:34.233Z,75.12
2024-04-09T18:48:01.377Z,75.68
2024-04-09T18:50:28.575Z,74.28
2024-04-09T18:52:55.631Z,74.53
2024-04-09T18:55:22.570Z,74.80
2024-04-09T18:57:49.089Z,74.71
2024-04-09T19:00:17.319Z,75.02
2024-04-09T19:02:44.115Z,75.78
2024-04-09T19:05:10.719Z,74.34
2024-04-09T19:07:37.276Z,74.32
2024-04-09T19:10:04.021Z,73.66
2024-04-09T19:12:30.717Z,73.10
2024-04-09T19:14:57.247Z,72.79
2024-04-09T19:17:23.907Z,73.12
2024-04-09T19:19:50.502Z,74.02
2024-04-09T19:22:17.040Z,72.45
2024-04-09T19:24:43.601Z,77.09
2024-04-09T19:27:10.157Z,76.79
2024-04-09T19:29:36.743Z,76.70
2024-04-09T19:32:03.344Z,75.35
2024-04-09T19:34:29.901Z,74.80
2024-04-09T19:36:56.452Z,75.54
2024-04-09T19:39:23.002Z,75.89
2024-04-09T19:41:49.579Z,77.15
2024-04-09T19:44:19.518Z,77.94
2024-04-09T19:46:47.635Z,79.26
2024-04-09T19:49:15.301Z,79.20
2024-04-09T19:51:41.875Z,80.63
2024-04-09T19:54:08.494Z,83.74
2024-04-09T19:56:35.468Z,84.11
2024-04-09T19:59:02.538Z,82.25
